sensor_id;sensor_type;location;lat;lon;timestamp;P1;durP1;ratioP1;P2;durP2;ratioP2
51034;SDS011;37062;52.546;13.230;2022-12-24T00:01:32;31.35;;;12.48;;
51034;SDS011;37062;52.546;13.230;2022-12-24T00:04:01;23.38;;;10.90;;
51034;SDS011;37062;52.546;13.230;2022-12-24T00:06:29;27.02;;;11.88;;
51034;SDS011;37062;52.546;13.230;2022-12-24T00:08:59;29.48;;;13.85;;
51034;SDS011;37062;52.546;13.230;2022-12-24T00:11:27;21.13;;;11.07;;
51034;SDS011;37062;52.546;13.230;2022-12-24T00:13:55;28.40;;;12.18;;
51034;SDS011;37062;52.546;13.230;2022-12-24T00:16:24;27.20;;;11.07;;
51034;SDS011;37062;52.546;13.230;2022-12-24T00:18:52;25.75;;;11.95;;
51034;SDS011;37062;52.546;13.230;2022-12-24T00:21:20;19.48;;;10.30;;
51034;SDS011;37062;52.546;13.230;2022-12-24T00:23:49;23.27;;;10.60;;
51034;SDS011;37062;52.546;13.230;2022-12-24T00:26:18;23.40;;;10.95;;
51034;SDS011;37062;52.546;13.230;2022-12-24T00:28:46;23.48;;;10.35;;
51034;SDS011;37062;52.546;13.230;2022-12-24T00:31:17;21.13;;;10.68;;
51034;SDS011;37062;52.546;13.230;2022-12-24T00:33:46;20.10;;;9.63;;
51034;SDS011;37062;52.546;13.230;2022-12-24T00:36:15;19.55;;;10.27;;
51034;SDS011;37062;52.546;13.230;2022-12-24T00:38:43;26.33;;;11.07;;
51034;SDS011;37062;52.546;13.230;2022-12-24T00:41:12;24.23;;;9.75;;
51034;SDS011;37062;52.546;13.230;2022-12-24T00:43:53;20.13;;;9.52;;
51034;SDS011;37062;52.546;13.230;2022-12-24T00:46:23;18.13;;;9.40;;
51034;SDS011;37062;52.546;13.230;2022-12-24T00:48:52;22.70;;;10.15;;
51034;SDS011;37062;52.546;13.230;2022-12-24T00:51:21;19.70;;;9.93;;
51034;SDS011;37062;52.546;13.230;2022-12-24T00:53:50;19.77;;;9.48;;
51034;SDS011;37062;52.546;13.230;2022-12-24T00:56:19;25.80;;;9.93;;
51034;SDS011;37062;52.546;13.230;2022-12-24T00:58:47;20.20;;;9.55;;
51034;SDS011;37062;52.546;13.230;2022-12-24T01:01:17;27.80;;;11.05;;
51034;SDS011;37062;52.546;13.230;2022-12-24T01:03:46;25.27;;;10.85;;
51034;SDS011;37062;52.546;13.230;2022-12-24T01:06:16;21.50;;;9.80;;
51034;SDS011;37062;52.546;13.230;2022-12-24T01:08:45;19.10;;;9.43;;
51034;SDS011;37062;52.546;13.230;2022-12-24T01:11:16;28.38;;;12.05;;
51034;SDS011;37062;52.546;13.230;2022-12-24T01:13:44;24.67;;;10.38;;
51034;SDS011;37062;52.546;13.230;2022-12-24T01:16:13;23.13;;;11.00;;
51034;SDS011;37062;52.546;13.230;2022-12-24T01:18:46;28.60;;;11.55;;
51034;SDS011;37062;52.546;13.230;2022-12-24T01:21:15;24.65;;;11.23;;
51034;SDS011;37062;52.546;13.230;2022-12-24T01:23:43;29.33;;;12.80;;
51034;SDS011;37062;52.546;13.230;2022-12-24T01:26:12;32.75;;;12.68;;
51034;SDS011;37062;52.546;13.230;2022-12-24T01:28:40;24.98;;;11.68;;
51034;SDS011;37062;52.546;13.230;2022-12-24T01:31:09;31.08;;;13.45;;
51034;SDS011;37062;52.546;13.230;2022-12-24T01:33:39;23.42;;;11.65;;
51034;SDS011;37062;52.546;13.230;2022-12-24T01:36:09;21.77;;;11.23;;
51034;SDS011;37062;52.546;13.230;2022-12-24T01:38:37;22.15;;;11.15;;
51034;SDS011;37062;52.546;13.230;2022-12-24T01:41:06;26.17;;;12.07;;
51034;SDS011;37062;52.546;13.230;2022-12-24T01:43:55;28.63;;;11.63;;
51034;SDS011;37062;52.546;13.230;2022-12-24T01:46:24;22.00;;;12.07;;
51034;SDS011;37062;52.546;13.230;2022-12-24T01:48:54;35.17;;;14.07;;
51034;SDS011;37062;52.546;13.230;2022-12-24T01:51:28;23.85;;;11.95;;
51034;SDS011;37062;52.546;13.230;2022-12-24T01:54:01;31.48;;;13.98;;
51034;SDS011;37062;52.546;13.230;2022-12-24T01:56:32;35.75;;;13.25;;
51034;SDS011;37062;52.546;13.230;2022-12-24T01:59:03;34.88;;;14.32;;
51034;SDS011;37062;52.546;13.230;2022-12-24T02:01:33;28.15;;;12.95;;
51034;SDS011;37062;52.546;13.230;2022-12-24T02:04:01;30.60;;;13.02;;
51034;SDS011;37062;52.546;13.230;2022-12-24T02:06:37;21.83;;;11.43;;
51034;SDS011;37062;52.546;13.230;2022-12-24T02:09:05;25.08;;;11.82;;
51034;SDS011;37062;52.546;13.230;2022-12-24T02:11:33;32.35;;;12.80;;
51034;SDS011;37062;52.546;13.230;2022-12-24T02:14:05;20.20;;;11.63;;
51034;SDS011;37062;52.546;13.230;2022-12-24T02:16:36;29.52;;;13.02;;
51034;SDS011;37062;52.546;13.230;2022-12-24T02:19:15;29.30;;;13.13;;
51034;SDS011;37062;52.546;13.230;2022-12-24T02:22:08;33.90;;;13.23;;
51034;SDS011;37062;52.546;13.230;2022-12-24T02:24:53;30.67;;;13.00;;
51034;SDS011;37062;52.546;13.230;2022-12-24T02:27:48;34.03;;;13.52;;
51034;SDS011;37062;52.546;13.230;2022-12-24T02:30:23;24.63;;;11.48;;
51034;SDS011;37062;52.546;13.230;2022-12-24T02:33:05;21.63;;;11.52;;
51034;SDS011;37062;52.546;13.230;2022-12-24T02:35:43;27.83;;;12.43;;
51034;SDS011;37062;52.546;13.230;2022-12-24T02:38:18;32.05;;;14.38;;
51034;SDS011;37062;52.546;13.230;2022-12-24T02:40:52;28.02;;;12.48;;
51034;SDS011;37062;52.546;13.230;2022-12-24T02:43:26;25.95;;;12.30;;
51034;SDS011;37062;52.546;13.230;2022-12-24T02:46:01;33.40;;;13.13;;
51034;SDS011;37062;52.546;13.230;2022-12-24T02:48:34;24.42;;;12.75;;
51034;SDS011;37062;52.546;13.230;2022-12-24T02:51:06;23.30;;;11.88;;
51034;SDS011;37062;52.546;13.230;2022-12-24T02:53:36;27.50;;;14.18;;
51034;SDS011;37062;52.546;13.230;2022-12-24T02:56:10;35.58;;;14.27;;
51034;SDS011;37062;52.546;13.230;2022-12-24T02:58:53;26.55;;;13.10;;
51034;SDS011;37062;52.546;13.230;2022-12-24T03:01:37;24.95;;;10.90;;
51034;SDS011;37062;52.546;13.230;2022-12-24T03:04:15;34.25;;;13.85;;
51034;SDS011;37062;52.546;13.230;2022-12-24T03:07:06;38.60;;;14.23;;
51034;SDS011;37062;52.546;13.230;2022-12-24T03:09:45;32.83;;;14.65;;
51034;SDS011;37062;52.546;13.230;2022-12-24T03:12:23;34.15;;;14.65;;
51034;SDS011;37062;52.546;13.230;2022-12-24T03:14:57;28.95;;;13.55;;
51034;SDS011;37062;52.546;13.230;2022-12-24T03:17:27;48.17;;;17.90;;
51034;SDS011;37062;52.546;13.230;2022-12-24T03:19:58;28.58;;;12.35;;
51034;SDS011;37062;52.546;13.230;2022-12-24T03:22:26;33.08;;;15.00;;
51034;SDS011;37062;52.546;13.230;2022-12-24T03:24:54;23.42;;;12.60;;
51034;SDS011;37062;52.546;13.230;2022-12-24T03:27:24;38.30;;;15.23;;
51034;SDS011;37062;52.546;13.230;2022-12-24T03:29:53;43.63;;;15.07;;
51034;SDS011;37062;52.546;13.230;2022-12-24T03:32:22;35.65;;;14.65;;
51034;SDS011;37062;52.546;13.230;2022-12-24T03:34:52;32.15;;;14.60;;
51034;SDS011;37062;52.546;13.230;2022-12-24T03:37:21;41.53;;;16.90;;
51034;SDS011;37062;52.546;13.230;2022-12-24T03:39:50;32.03;;;15.13;;
51034;SDS011;37062;52.546;13.230;2022-12-24T03:42:19;38.03;;;16.25;;
51034;SDS011;37062;52.546;13.230;2022-12-24T03:44:47;30.83;;;14.05;;
51034;SDS011;37062;52.546;13.230;2022-12-24T03:47:15;39.28;;;16.55;;
51034;SDS011;37062;52.546;13.230;2022-12-24T03:49:43;40.08;;;15.93;;
51034;SDS011;37062;52.546;13.230;2022-12-24T03:52:13;32.53;;;14.93;;
51034;SDS011;37062;52.546;13.230;2022-12-24T03:54:41;37.42;;;15.32;;
51034;SDS011;37062;52.546;13.230;2022-12-24T03:57:09;35.05;;;15.13;;
51034;SDS011;37062;52.546;13.230;2022-12-24T03:59:37;39.03;;;14.82;;
51034;SDS011;37062;52.546;13.230;2022-12-24T04:02:06;25.65;;;13.43;;
51034;SDS011;37062;52.546;13.230;2022-12-24T04:04:34;29.35;;;13.65;;
51034;SDS011;37062;52.546;13.230;2022-12-24T04:07:03;40.78;;;16.27;;
51034;SDS011;37062;52.546;13.230;2022-12-24T04:09:33;38.13;;;15.18;;
51034;SDS011;37062;52.546;13.230;2022-12-24T04:12:01;25.50;;;12.85;;
51034;SDS011;37062;52.546;13.230;2022-12-24T04:14:29;35.33;;;15.40;;
51034;SDS011;37062;52.546;13.230;2022-12-24T04:16:57;25.77;;;13.10;;
51034;SDS011;37062;52.546;13.230;2022-12-24T04:19:26;19.90;;;11.38;;
51034;SDS011;37062;52.546;13.230;2022-12-24T04:21:54;24.33;;;11.88;;
51034;SDS011;37062;52.546;13.230;2022-12-24T04:24:22;42.38;;;15.27;;
51034;SDS011;37062;52.546;13.230;2022-12-24T04:26:52;30.15;;;14.35;;
51034;SDS011;37062;52.546;13.230;2022-12-24T04:29:20;35.60;;;15.77;;
51034;SDS011;37062;52.546;13.230;2022-12-24T04:31:49;39.78;;;16.42;;
51034;SDS011;37062;52.546;13.230;2022-12-24T04:34:17;31.23;;;14.95;;
51034;SDS011;37062;52.546;13.230;2022-12-24T04:36:45;20.05;;;11.90;;
51034;SDS011;37062;52.546;13.230;2022-12-24T04:39:13;26.08;;;14.32;;
51034;SDS011;37062;52.546;13.230;2022-12-24T04:41:41;24.27;;;12.57;;
51034;SDS011;37062;52.546;13.230;2022-12-24T04:44:11;32.55;;;15.07;;
51034;SDS011;37062;52.546;13.230;2022-12-24T04:46:39;19.08;;;11.63;;
51034;SDS011;37062;52.546;13.230;2022-12-24T04:49:08;28.80;;;13.25;;
51034;SDS011;37062;52.546;13.230;2022-12-24T04:51:37;30.05;;;13.90;;
51034;SDS011;37062;52.546;13.230;2022-12-24T04:54:05;23.92;;;13.13;;
51034;SDS011;37062;52.546;13.230;2022-12-24T04:56:33;19.00;;;11.77;;
51034;SDS011;37062;52.546;13.230;2022-12-24T04:59:02;24.23;;;12.13;;
51034;SDS011;37062;52.546;13.230;2022-12-24T05:01:31;35.08;;;15.27;;
51034;SDS011;37062;52.546;13.230;2022-12-24T05:04:00;17.65;;;11.55;;
51034;SDS011;37062;52.546;13.230;2022-12-24T05:06:28;28.20;;;13.18;;
51034;SDS011;37062;52.546;13.230;2022-12-24T05:08:57;23.23;;;12.93;;
51034;SDS011;37062;52.546;13.230;2022-12-24T05:11:27;36.20;;;16.25;;
51034;SDS011;37062;52.546;13.230;2022-12-24T05:13:55;32.63;;;14.77;;
51034;SDS011;37062;52.546;13.230;2022-12-24T05:16:23;30.13;;;14.68;;
51034;SDS011;37062;52.546;13.230;2022-12-24T05:18:53;33.88;;;16.17;;
51034;SDS011;37062;52.546;13.230;2022-12-24T05:21:22;38.22;;;16.63;;
51034;SDS011;37062;52.546;13.230;2022-12-24T05:23:51;29.33;;;14.80;;
51034;SDS011;37062;52.546;13.230;2022-12-24T05:26:38;28.00;;;13.02;;
51034;SDS011;37062;52.546;13.230;2022-12-24T05:29:09;32.78;;;14.80;;
51034;SDS011;37062;52.546;13.230;2022-12-24T05:31:39;31.40;;;15.18;;
51034;SDS011;37062;52.546;13.230;2022-12-24T05:34:10;36.17;;;16.45;;
51034;SDS011;37062;52.546;13.230;2022-12-24T05:36:38;33.75;;;15.57;;
51034;SDS011;37062;52.546;13.230;2022-12-24T05:39:07;31.80;;;14.85;;
51034;SDS011;37062;52.546;13.230;2022-12-24T05:41:41;24.00;;;13.77;;
51034;SDS011;37062;52.546;13.230;2022-12-24T05:44:10;27.63;;;14.32;;
51034;SDS011;37062;52.546;13.230;2022-12-24T05:46:38;33.28;;;15.13;;
51034;SDS011;37062;52.546;13.230;2022-12-24T05:49:06;33.75;;;16.20;;
51034;SDS011;37062;52.546;13.230;2022-12-24T05:51:37;24.55;;;12.85;;
51034;SDS011;37062;52.546;13.230;2022-12-24T05:54:05;27.23;;;13.68;;
51034;SDS011;37062;52.546;13.230;2022-12-24T05:56:34;24.73;;;12.80;;
51034;SDS011;37062;52.546;13.230;2022-12-24T05:59:02;21.00;;;11.93;;
51034;SDS011;37062;52.546;13.230;2022-12-24T06:01:30;22.63;;;12.63;;
51034;SDS011;37062;52.546;13.230;2022-12-24T06:03:58;25.20;;;13.82;;
51034;SDS011;37062;52.546;13.230;2022-12-24T06:06:26;29.50;;;13.57;;
51034;SDS011;37062;52.546;13.230;2022-12-24T06:08:56;18.73;;;11.48;;
51034;SDS011;37062;52.546;13.230;2022-12-24T06:11:25;29.27;;;14.80;;
51034;SDS011;37062;52.546;13.230;2022-12-24T06:13:54;22.45;;;13.77;;
51034;SDS011;37062;52.546;13.230;2022-12-24T06:16:23;21.65;;;12.77;;
51034;SDS011;37062;52.546;13.230;2022-12-24T06:18:52;17.17;;;10.70;;
51034;SDS011;37062;52.546;13.230;2022-12-24T06:21:21;27.67;;;13.35;;
51034;SDS011;37062;52.546;13.230;2022-12-24T06:23:49;21.98;;;12.20;;
51034;SDS011;37062;52.546;13.230;2022-12-24T06:26:19;30.20;;;13.60;;
51034;SDS011;37062;52.546;13.230;2022-12-24T06:28:49;19.77;;;12.52;;
51034;SDS011;37062;52.546;13.230;2022-12-24T06:31:18;20.60;;;13.20;;
51034;SDS011;37062;52.546;13.230;2022-12-24T06:33:48;22.17;;;13.93;;
51034;SDS011;37062;52.546;13.230;2022-12-24T06:36:17;28.48;;;15.57;;
51034;SDS011;37062;52.546;13.230;2022-12-24T06:38:48;34.17;;;16.63;;
51034;SDS011;37062;52.546;13.230;2022-12-24T06:41:16;31.08;;;15.57;;
51034;SDS011;37062;52.546;13.230;2022-12-24T06:43:46;29.05;;;16.20;;
51034;SDS011;37062;52.546;13.230;2022-12-24T06:46:16;27.77;;;14.57;;
51034;SDS011;37062;52.546;13.230;2022-12-24T06:48:45;25.48;;;14.27;;
51034;SDS011;37062;52.546;13.230;2022-12-24T06:51:14;27.08;;;15.00;;
51034;SDS011;37062;52.546;13.230;2022-12-24T06:53:45;28.67;;;14.98;;
51034;SDS011;37062;52.546;13.230;2022-12-24T06:56:13;24.48;;;13.27;;
51034;SDS011;37062;52.546;13.230;2022-12-24T06:58:42;24.20;;;13.38;;
51034;SDS011;37062;52.546;13.230;2022-12-24T07:01:13;31.25;;;15.73;;
51034;SDS011;37062;52.546;13.230;2022-12-24T07:03:43;24.83;;;13.87;;
51034;SDS011;37062;52.546;13.230;2022-12-24T07:06:14;27.48;;;14.32;;
51034;SDS011;37062;52.546;13.230;2022-12-24T07:08:45;25.95;;;13.57;;
51034;SDS011;37062;52.546;13.230;2022-12-24T07:11:14;36.25;;;15.68;;
51034;SDS011;37062;52.546;13.230;2022-12-24T07:13:43;22.45;;;13.85;;
51034;SDS011;37062;52.546;13.230;2022-12-24T07:16:13;24.38;;;13.57;;
51034;SDS011;37062;52.546;13.230;2022-12-24T07:18:43;23.30;;;12.90;;
51034;SDS011;37062;52.546;13.230;2022-12-24T07:21:12;30.98;;;14.55;;
51034;SDS011;37062;52.546;13.230;2022-12-24T07:23:40;21.23;;;12.95;;
51034;SDS011;37062;52.546;13.230;2022-12-24T07:26:09;17.08;;;12.30;;
51034;SDS011;37062;52.546;13.230;2022-12-24T07:28:37;23.95;;;12.52;;
51034;SDS011;37062;52.546;13.230;2022-12-24T07:31:05;20.10;;;11.90;;
51034;SDS011;37062;52.546;13.230;2022-12-24T07:33:35;31.17;;;14.60;;
51034;SDS011;37062;52.546;13.230;2022-12-24T07:36:04;28.38;;;14.60;;
51034;SDS011;37062;52.546;13.230;2022-12-24T07:38:34;25.27;;;13.25;;
51034;SDS011;37062;52.546;13.230;2022-12-24T07:41:02;23.48;;;13.85;;
51034;SDS011;37062;52.546;13.230;2022-12-24T07:43:31;21.63;;;12.68;;
51034;SDS011;37062;52.546;13.230;2022-12-24T07:46:00;24.25;;;14.07;;
51034;SDS011;37062;52.546;13.230;2022-12-24T07:48:29;21.90;;;12.90;;
51034;SDS011;37062;52.546;13.230;2022-12-24T07:50:59;27.70;;;14.23;;
51034;SDS011;37062;52.546;13.230;2022-12-24T07:53:28;29.63;;;13.35;;
51034;SDS011;37062;52.546;13.230;2022-12-24T07:55:57;22.92;;;13.00;;
51034;SDS011;37062;52.546;13.230;2022-12-24T07:58:25;26.50;;;13.93;;
51034;SDS011;37062;52.546;13.230;2022-12-24T08:00:57;25.35;;;14.45;;
51034;SDS011;37062;52.546;13.230;2022-12-24T08:03:26;25.88;;;13.77;;
51034;SDS011;37062;52.546;13.230;2022-12-24T08:05:55;18.73;;;10.45;;
51034;SDS011;37062;52.546;13.230;2022-12-24T08:08:25;26.48;;;13.48;;
51034;SDS011;37062;52.546;13.230;2022-12-24T08:10:58;27.05;;;14.35;;
51034;SDS011;37062;52.546;13.230;2022-12-24T08:13:28;32.95;;;14.77;;
51034;SDS011;37062;52.546;13.230;2022-12-24T08:15:56;33.85;;;15.40;;
51034;SDS011;37062;52.546;13.230;2022-12-24T08:18:25;26.95;;;14.07;;
51034;SDS011;37062;52.546;13.230;2022-12-24T08:20:53;26.15;;;13.65;;
51034;SDS011;37062;52.546;13.230;2022-12-24T08:23:21;32.78;;;14.50;;
51034;SDS011;37062;52.546;13.230;2022-12-24T08:25:51;23.02;;;11.77;;
51034;SDS011;37062;52.546;13.230;2022-12-24T08:28:20;21.10;;;11.93;;
51034;SDS011;37062;52.546;13.230;2022-12-24T08:30:48;34.97;;;15.70;;
51034;SDS011;37062;52.546;13.230;2022-12-24T08:33:17;42.22;;;18.05;;
51034;SDS011;37062;52.546;13.230;2022-12-24T08:35:46;22.15;;;13.23;;
51034;SDS011;37062;52.546;13.230;2022-12-24T08:38:15;30.15;;;14.98;;
51034;SDS011;37062;52.546;13.230;2022-12-24T08:40:43;35.65;;;16.65;;
51034;SDS011;37062;52.546;13.230;2022-12-24T08:43:15;29.30;;;14.38;;
51034;SDS011;37062;52.546;13.230;2022-12-24T08:45:44;26.80;;;14.32;;
51034;SDS011;37062;52.546;13.230;2022-12-24T08:48:12;19.30;;;11.93;;
51034;SDS011;37062;52.546;13.230;2022-12-24T08:50:41;15.32;;;10.02;;
51034;SDS011;37062;52.546;13.230;2022-12-24T08:53:09;24.48;;;13.68;;
51034;SDS011;37062;52.546;13.230;2022-12-24T08:55:38;23.30;;;14.15;;
51034;SDS011;37062;52.546;13.230;2022-12-24T08:58:06;37.22;;;16.95;;
51034;SDS011;37062;52.546;13.230;2022-12-24T09:00:36;20.67;;;12.15;;
51034;SDS011;37062;52.546;13.230;2022-12-24T09:03:04;18.30;;;11.18;;
51034;SDS011;37062;52.546;13.230;2022-12-24T09:05:33;29.20;;;13.77;;
51034;SDS011;37062;52.546;13.230;2022-12-24T09:08:05;34.80;;;16.65;;
51034;SDS011;37062;52.546;13.230;2022-12-24T09:10:34;35.33;;;17.42;;
51034;SDS011;37062;52.546;13.230;2022-12-24T09:13:02;24.88;;;13.63;;
51034;SDS011;37062;52.546;13.230;2022-12-24T09:15:30;21.15;;;13.73;;
51034;SDS011;37062;52.546;13.230;2022-12-24T09:18:00;24.27;;;14.38;;
51034;SDS011;37062;52.546;13.230;2022-12-24T09:20:28;16.08;;;10.90;;
51034;SDS011;37062;52.546;13.230;2022-12-24T09:22:56;30.05;;;13.93;;
51034;SDS011;37062;52.546;13.230;2022-12-24T09:25:25;20.17;;;12.60;;
51034;SDS011;37062;52.546;13.230;2022-12-24T09:27:53;17.05;;;11.38;;
51034;SDS011;37062;52.546;13.230;2022-12-24T09:30:21;18.25;;;12.45;;
51034;SDS011;37062;52.546;13.230;2022-12-24T09:32:49;14.77;;;10.32;;
51034;SDS011;37062;52.546;13.230;2022-12-24T09:35:19;14.70;;;10.18;;
51034;SDS011;37062;52.546;13.230;2022-12-24T09:37:47;17.55;;;11.65;;
51034;SDS011;37062;52.546;13.230;2022-12-24T09:40:36;15.70;;;10.80;;
51034;SDS011;37062;52.546;13.230;2022-12-24T09:43:10;19.52;;;12.38;;
51034;SDS011;37062;52.546;13.230;2022-12-24T09:45:44;19.63;;;12.77;;
51034;SDS011;37062;52.546;13.230;2022-12-24T09:48:17;20.23;;;12.95;;
51034;SDS011;37062;52.546;13.230;2022-12-24T09:50:51;23.45;;;12.57;;
51034;SDS011;37062;52.546;13.230;2022-12-24T09:53:23;15.15;;;10.65;;
51034;SDS011;37062;52.546;13.230;2022-12-24T09:55:56;12.75;;;9.45;;
51034;SDS011;37062;52.546;13.230;2022-12-24T09:58:27;14.23;;;10.23;;
51034;SDS011;37062;52.546;13.230;2022-12-24T10:01:00;28.58;;;13.23;;
51034;SDS011;37062;52.546;13.230;2022-12-24T10:03:28;20.80;;;12.40;;
51034;SDS011;37062;52.546;13.230;2022-12-24T10:06:02;16.17;;;11.23;;
51034;SDS011;37062;52.546;13.230;2022-12-24T10:08:37;18.52;;;12.65;;
51034;SDS011;37062;52.546;13.230;2022-12-24T10:11:16;13.20;;;10.07;;
51034;SDS011;37062;52.546;13.230;2022-12-24T10:13:55;14.23;;;10.63;;
51034;SDS011;37062;52.546;13.230;2022-12-24T10:16:31;13.32;;;9.73;;
51034;SDS011;37062;52.546;13.230;2022-12-24T10:19:09;17.23;;;12.40;;
51034;SDS011;37062;52.546;13.230;2022-12-24T10:21:46;15.38;;;10.07;;
51034;SDS011;37062;52.546;13.230;2022-12-24T10:24:26;15.98;;;11.40;;
51034;SDS011;37062;52.546;13.230;2022-12-24T10:27:01;16.75;;;11.48;;
51034;SDS011;37062;52.546;13.230;2022-12-24T10:29:33;21.67;;;13.38;;
51034;SDS011;37062;52.546;13.230;2022-12-24T10:32:10;17.88;;;12.77;;
51034;SDS011;37062;52.546;13.230;2022-12-24T10:34:45;17.27;;;11.63;;
51034;SDS011;37062;52.546;13.230;2022-12-24T10:37:21;17.92;;;11.50;;
51034;SDS011;37062;52.546;13.230;2022-12-24T10:39:51;15.52;;;10.32;;
51034;SDS011;37062;52.546;13.230;2022-12-24T10:42:19;15.18;;;10.60;;
51034;SDS011;37062;52.546;13.230;2022-12-24T10:44:53;14.40;;;10.77;;
51034;SDS011;37062;52.546;13.230;2022-12-24T10:47:23;14.20;;;10.65;;
51034;SDS011;37062;52.546;13.230;2022-12-24T10:49:56;14.98;;;10.82;;
51034;SDS011;37062;52.546;13.230;2022-12-24T10:52:34;14.35;;;10.25;;
51034;SDS011;37062;52.546;13.230;2022-12-24T10:55:07;13.43;;;9.50;;
51034;SDS011;37062;52.546;13.230;2022-12-24T10:57:38;11.60;;;9.35;;
51034;SDS011;37062;52.546;13.230;2022-12-24T11:00:16;13.73;;;10.25;;
51034;SDS011;37062;52.546;13.230;2022-12-24T11:02:47;15.15;;;10.57;;
51034;SDS011;37062;52.546;13.230;2022-12-24T11:05:31;14.73;;;11.05;;
51034;SDS011;37062;52.546;13.230;2022-12-24T11:08:03;12.18;;;9.50;;
51034;SDS011;37062;52.546;13.230;2022-12-24T11:10:34;12.60;;;9.35;;
51034;SDS011;37062;52.546;13.230;2022-12-24T11:13:03;10.65;;;8.65;;
51034;SDS011;37062;52.546;13.230;2022-12-24T11:15:58;14.07;;;11.30;;
51034;SDS011;37062;52.546;13.230;2022-12-24T11:18:29;11.20;;;9.30;;
51034;SDS011;37062;52.546;13.230;2022-12-24T11:20:58;11.48;;;9.57;;
51034;SDS011;37062;52.546;13.230;2022-12-24T11:23:28;13.60;;;10.18;;
51034;SDS011;37062;52.546;13.230;2022-12-24T11:25:57;13.23;;;10.07;;
51034;SDS011;37062;52.546;13.230;2022-12-24T11:28:26;13.15;;;9.50;;
51034;SDS011;37062;52.546;13.230;2022-12-24T11:30:59;12.75;;;9.82;;
51034;SDS011;37062;52.546;13.230;2022-12-24T11:33:29;15.68;;;11.52;;
51034;SDS011;37062;52.546;13.230;2022-12-24T11:35:59;13.40;;;10.18;;
51034;SDS011;37062;52.546;13.230;2022-12-24T11:38:32;16.80;;;11.40;;
51034;SDS011;37062;52.546;13.230;2022-12-24T11:41:05;14.43;;;10.27;;
51034;SDS011;37062;52.546;13.230;2022-12-24T11:43:38;13.63;;;9.70;;
51034;SDS011;37062;52.546;13.230;2022-12-24T11:46:13;50.60;;;22.60;;
51034;SDS011;37062;52.546;13.230;2022-12-24T11:48:46;15.38;;;10.38;;
51034;SDS011;37062;52.546;13.230;2022-12-24T11:51:19;11.15;;;8.55;;
51034;SDS011;37062;52.546;13.230;2022-12-24T11:53:54;14.00;;;9.95;;
51034;SDS011;37062;52.546;13.230;2022-12-24T11:56:35;9.82;;;7.65;;
51034;SDS011;37062;52.546;13.230;2022-12-24T11:59:09;13.20;;;9.88;;
51034;SDS011;37062;52.546;13.230;2022-12-24T12:01:46;10.35;;;8.32;;
51034;SDS011;37062;52.546;13.230;2022-12-24T12:04:18;8.88;;;7.18;;
51034;SDS011;37062;52.546;13.230;2022-12-24T12:06:49;7.43;;;6.22;;
51034;SDS011;37062;52.546;13.230;2022-12-24T12:09:25;7.05;;;6.13;;
51034;SDS011;37062;52.546;13.230;2022-12-24T12:11:59;7.45;;;5.68;;
51034;SDS011;37062;52.546;13.230;2022-12-24T12:14:32;16.05;;;10.13;;
51034;SDS011;37062;52.546;13.230;2022-12-24T12:17:06;6.88;;;5.78;;
51034;SDS011;37062;52.546;13.230;2022-12-24T12:19:46;7.10;;;6.05;;
51034;SDS011;37062;52.546;13.230;2022-12-24T12:22:22;7.75;;;6.00;;
51034;SDS011;37062;52.546;13.230;2022-12-24T12:24:56;16.88;;;9.48;;
51034;SDS011;37062;52.546;13.230;2022-12-24T12:27:30;8.90;;;5.88;;
51034;SDS011;37062;52.546;13.230;2022-12-24T12:30:04;8.48;;;5.82;;
51034;SDS011;37062;52.546;13.230;2022-12-24T12:32:40;7.25;;;6.13;;
51034;SDS011;37062;52.546;13.230;2022-12-24T12:35:20;6.20;;;5.60;;
51034;SDS011;37062;52.546;13.230;2022-12-24T12:37:53;6.13;;;5.53;;
51034;SDS011;37062;52.546;13.230;2022-12-24T12:40:28;7.25;;;6.18;;
51034;SDS011;37062;52.546;13.230;2022-12-24T12:43:22;10.27;;;6.80;;
51034;SDS011;37062;52.546;13.230;2022-12-24T12:46:04;8.73;;;6.18;;
51034;SDS011;37062;52.546;13.230;2022-12-24T12:48:44;8.13;;;6.55;;
51034;SDS011;37062;52.546;13.230;2022-12-24T12:51:29;7.72;;;5.90;;
51034;SDS011;37062;52.546;13.230;2022-12-24T12:54:14;8.80;;;6.85;;
51034;SDS011;37062;52.546;13.230;2022-12-24T12:56:55;7.65;;;5.10;;
51034;SDS011;37062;52.546;13.230;2022-12-24T12:59:29;7.70;;;5.78;;
51034;SDS011;37062;52.546;13.230;2022-12-24T13:02:08;8.35;;;6.45;;
51034;SDS011;37062;52.546;13.230;2022-12-24T13:04:54;7.07;;;5.80;;
51034;SDS011;37062;52.546;13.230;2022-12-24T13:07:50;8.95;;;5.53;;
51034;SDS011;37062;52.546;13.230;2022-12-24T13:10:44;8.48;;;6.53;;
51034;SDS011;37062;52.546;13.230;2022-12-24T13:16:37;8.82;;;4.72;;
51034;SDS011;37062;52.546;13.230;2022-12-24T13:19:29;7.32;;;4.13;;
51034;SDS011;37062;52.546;13.230;2022-12-24T13:22:12;13.05;;;5.03;;
51034;SDS011;37062;52.546;13.230;2022-12-24T13:24:46;7.25;;;4.53;;
51034;SDS011;37062;52.546;13.230;2022-12-24T13:27:18;11.30;;;4.25;;
51034;SDS011;37062;52.546;13.230;2022-12-24T13:29:55;10.57;;;4.43;;
51034;SDS011;37062;52.546;13.230;2022-12-24T13:32:47;9.85;;;4.28;;
51034;SDS011;37062;52.546;13.230;2022-12-24T13:44:23;12.75;;;3.90;;
51034;SDS011;37062;52.546;13.230;2022-12-24T13:47:00;12.90;;;3.95;;
51034;SDS011;37062;52.546;13.230;2022-12-24T13:49:53;12.88;;;4.57;;
51034;SDS011;37062;52.546;13.230;2022-12-24T13:52:25;12.40;;;4.45;;
51034;SDS011;37062;52.546;13.230;2022-12-24T13:55:03;10.05;;;4.18;;
51034;SDS011;37062;52.546;13.230;2022-12-24T13:57:53;13.93;;;4.57;;
51034;SDS011;37062;52.546;13.230;2022-12-24T14:00:31;10.63;;;3.95;;
51034;SDS011;37062;52.546;13.230;2022-12-24T14:03:14;12.75;;;4.35;;
51034;SDS011;37062;52.546;13.230;2022-12-24T14:05:50;11.27;;;3.67;;
51034;SDS011;37062;52.546;13.230;2022-12-24T14:08:27;19.05;;;4.70;;
51034;SDS011;37062;52.546;13.230;2022-12-24T14:11:05;14.32;;;4.40;;
51034;SDS011;37062;52.546;13.230;2022-12-24T14:13:51;7.32;;;3.67;;
51034;SDS011;37062;52.546;13.230;2022-12-24T14:16:22;21.02;;;5.00;;
51034;SDS011;37062;52.546;13.230;2022-12-24T14:18:58;14.98;;;4.63;;
51034;SDS011;37062;52.546;13.230;2022-12-24T14:21:29;15.15;;;4.68;;
51034;SDS011;37062;52.546;13.230;2022-12-24T14:24:01;17.25;;;4.75;;
51034;SDS011;37062;52.546;13.230;2022-12-24T14:26:33;13.55;;;4.78;;
51034;SDS011;37062;52.546;13.230;2022-12-24T14:29:14;13.57;;;4.78;;
51034;SDS011;37062;52.546;13.230;2022-12-24T14:31:50;15.18;;;4.38;;
51034;SDS011;37062;52.546;13.230;2022-12-24T14:34:21;18.02;;;5.43;;
51034;SDS011;37062;52.546;13.230;2022-12-24T14:36:50;17.55;;;5.03;;
51034;SDS011;37062;52.546;13.230;2022-12-24T14:39:22;16.95;;;5.35;;
51034;SDS011;37062;52.546;13.230;2022-12-24T14:41:56;23.83;;;5.80;;
51034;SDS011;37062;52.546;13.230;2022-12-24T14:44:35;18.08;;;5.40;;
51034;SDS011;37062;52.546;13.230;2022-12-24T14:47:20;17.30;;;4.85;;
51034;SDS011;37062;52.546;13.230;2022-12-24T14:50:01;14.70;;;4.68;;
51034;SDS011;37062;52.546;13.230;2022-12-24T14:52:51;19.75;;;5.15;;
51034;SDS011;37062;52.546;13.230;2022-12-24T14:55:39;19.05;;;4.95;;